ENSO/SRP METAR and TAF weather

Enter ICAO airport designator
Station Type Date Time Source
ENSO METAR 2020/04/07 12:50 UTC NOAA

ENSO 071250Z 19009KT 140V260 9999 FEW030 11/03 Q1029


Station Type Date Time Source
ENSO Decoded METAR 2020/04/07 12:50 UTC NOAA

Stord / Soerstokken, Norway (ENSO) 59-48N 005-21E
Apr 07, 2020 - 08:50 AM EDT / 2020.04.07 1250 UTC
Wind: from the S (190 degrees) at 10 MPH (9 KT) (direction variable):0
Visibility: greater than 7 mile(s):0
Sky conditions: mostly clear
Temperature: 51 F (11 C)
Dew Point: 37 F (3 C)
Relative Humidity: 57%
Pressure (altimeter): 30.39 in. Hg (1029 hPa)
ob: ENSO 071250Z 19009KT 140V260 9999 FEW030 11/03 Q1029
cycle: 13

Station Type Date Time Source
ENSO TAF UTC NOAA

Error!

Example: see airport list